Time;durP1;ratioP1;P1;durP2;ratioP2;P2;SDS_P1;SDS_P2;PMS_P1;PMS_P2;Temp;Humidity;BMP_temperature;BMP_pressure;BME280_temperature;BME280_humidity;BME280_pressure;Samples;Min_cycle;Max_cycle;Signal;HPM_P1;HPM_P2
2023/08/01 00:01:34;;;;;;;4.57;4.47;;;17.70;99.90;;;;;;5025024;28;20469;-70
2023/08/01 00:04:01;;;;;;;4.50;4.40;;;17.70;99.90;;;;;;5024455;28;20476;-68
2023/08/01 00:06:28;;;;;;;5.20;5.10;;;17.60;99.90;;;;;;5025757;28;20469;-70
2023/08/01 00:08:56;;;;;;;5.10;5.00;;;17.60;99.90;;;;;;5027787;28;20468;-68
2023/08/01 00:11:23;;;;;;;4.40;4.30;;;17.70;99.90;;;;;;5027915;28;20935;-68
2023/08/01 00:13:51;;;;;;;4.60;4.50;;;17.70;99.90;;;;;;5021425;28;20483;-70
2023/08/01 00:16:18;;;;;;;4.70;4.60;;;17.70;99.90;;;;;;5027990;28;20512;-68
2023/08/01 00:18:45;;;;;;;4.20;4.10;;;17.60;99.90;;;;;;5019594;28;21004;-69
2023/08/01 00:21:12;;;;;;;32.10;5.47;;;17.70;99.90;;;;;;5026443;28;20461;-70
2023/08/01 00:23:39;;;;;;;3.60;3.50;;;17.70;99.90;;;;;;5028100;28;20827;-69
2023/08/01 00:26:07;;;;;;;4.23;2.93;;;17.60;99.90;;;;;;5026440;28;20464;-69
2023/08/01 00:28:34;;;;;;;3.00;2.90;;;17.60;99.90;;;;;;5028224;28;20457;-70
2023/08/01 00:31:05;;;;;;;3.00;2.90;;;17.60;99.90;;;;;;5024036;28;20469;-70
2023/08/01 00:33:32;;;;;;;3.40;3.30;;;17.50;99.90;;;;;;5026367;28;20484;-68
2023/08/01 00:35:59;;;;;;;3.60;3.50;;;17.40;99.90;;;;;;5028363;28;20472;-69
2023/08/01 00:38:26;;;;;;;3.80;3.70;;;17.40;99.90;;;;;;5016070;28;20580;-69
2023/08/01 00:40:53;;;;;;;4.83;4.73;;;17.40;99.90;;;;;;5027357;28;20457;-71
2023/08/01 00:43:21;;;;;;;4.53;4.43;;;17.50;99.90;;;;;;5024036;28;20951;-71
2023/08/01 00:45:48;;;;;;;4.40;4.30;;;17.50;99.90;;;;;;5021786;28;20805;-70
2023/08/01 00:48:16;;;;;;;4.50;4.40;;;17.40;99.90;;;;;;5023739;28;20476;-69
2023/08/01 00:50:43;;;;;;;4.10;4.00;;;17.50;99.90;;;;;;5027724;28;20460;-69
2023/08/01 00:53:10;;;;;;;4.47;4.37;;;17.50;99.90;;;;;;5027655;28;20523;-71
2023/08/01 00:55:38;;;;;;;3.97;3.87;;;17.50;99.90;;;;;;5025182;28;20471;-71
2023/08/01 00:58:05;;;;;;;3.87;3.77;;;17.40;99.90;;;;;;5021880;28;20475;-69
2023/08/01 01:00:34;;;;;;;4.17;4.07;;;17.40;99.90;;;;;;5027428;28;20605;-68
2023/08/01 01:03:02;;;;;;;4.50;4.40;;;17.40;99.90;;;;;;5020898;28;20469;-68
2023/08/01 01:05:35;;;;;;;4.50;4.40;;;17.40;99.90;;;;;;5022845;28;20488;-69
2023/08/01 01:08:04;;;;;;;4.20;4.10;;;17.30;99.90;;;;;;5028155;28;20927;-69
2023/08/01 01:10:32;;;;;;;4.60;4.40;;;17.30;99.90;;;;;;5027422;28;20556;-68
2023/08/01 01:12:59;;;;;;;3.93;3.83;;;17.30;99.90;;;;;;5021378;28;20469;-69
2023/08/01 01:15:26;;;;;;;4.20;4.10;;;17.30;99.90;;;;;;5027380;28;20491;-71
2023/08/01 01:17:55;;;;;;;4.00;3.90;;;17.20;99.90;;;;;;5027521;28;20460;-70
2023/08/01 01:20:24;;;;;;;4.30;4.20;;;17.20;99.90;;;;;;5027750;28;20463;-68
2023/08/01 01:22:54;;;;;;;4.27;4.17;;;17.20;99.90;;;;;;5027652;28;20497;-68
2023/08/01 01:25:22;;;;;;;4.10;4.00;;;17.20;99.90;;;;;;5027721;28;20940;-69
2023/08/01 01:27:50;;;;;;;4.60;4.50;;;17.20;99.90;;;;;;5031816;28;20468;-71
2023/08/01 01:30:18;;;;;;;4.53;4.43;;;17.20;99.90;;;;;;5023998;28;20473;-70
2023/08/01 01:32:46;;;;;;;4.30;4.20;;;17.20;99.90;;;;;;5031780;28;20452;-70
2023/08/01 01:35:14;;;;;;;4.00;3.90;;;17.20;99.90;;;;;;5022493;28;20548;-69
2023/08/01 01:37:42;;;;;;;4.00;3.90;;;17.10;99.90;;;;;;5028790;28;20457;-70
2023/08/01 01:40:12;;;;;;;4.10;4.00;;;17.10;99.90;;;;;;5024502;28;20523;-69
2023/08/01 01:42:40;;;;;;;4.93;4.73;;;17.10;99.90;;;;;;5031578;28;20465;-68
2023/08/01 01:45:07;;;;;;;3.90;3.80;;;17.10;99.90;;;;;;5031196;28;20471;-69
2023/08/01 01:47:34;;;;;;;4.23;4.13;;;17.00;99.90;;;;;;5029202;28;20483;-68
2023/08/01 01:50:01;;;;;;;7.90;3.90;;;17.00;99.90;;;;;;5029366;28;20452;-69
2023/08/01 01:52:30;;;;;;;4.27;4.17;;;17.00;99.90;;;;;;5026172;28;20848;-69
2023/08/01 01:54:57;;;;;;;4.00;3.90;;;17.00;99.90;;;;;;5027918;28;20472;-69
2023/08/01 01:57:26;;;;;;;4.63;4.53;;;17.00;99.90;;;;;;5026040;28;20473;-68
2023/08/01 01:59:53;;;;;;;4.60;4.50;;;17.00;99.90;;;;;;5029614;28;20500;-68
2023/08/01 02:02:21;;;;;;;4.60;4.50;;;17.00;99.90;;;;;;5029151;28;20469;-68
2023/08/01 02:04:49;;;;;;;4.30;4.20;;;17.00;99.90;;;;;;5029726;28;20589;-68
2023/08/01 02:07:15;;;;;;;4.60;4.50;;;17.00;99.90;;;;;;5026009;28;20472;-68
2023/08/01 02:09:42;;;;;;;4.70;4.50;;;17.00;99.90;;;;;;5030878;28;20518;-69
2023/08/01 02:12:13;;;;;;;4.70;4.50;;;17.00;99.90;;;;;;5029226;28;20469;-70
2023/08/01 02:14:42;;;;;;;4.00;3.90;;;17.00;99.90;;;;;;5030519;28;20484;-69
2023/08/01 02:17:09;;;;;;;4.40;4.30;;;16.90;99.90;;;;;;5020845;28;20472;-67
2023/08/01 02:19:36;;;;;;;4.73;4.53;;;16.90;99.90;;;;;;5030550;28;21009;-67
2023/08/01 02:22:04;;;;;;;4.60;4.50;;;16.80;99.90;;;;;;5026955;28;20568;-68
2023/08/01 02:24:32;;;;;;;4.57;4.47;;;16.80;99.90;;;;;;5030317;28;20453;-67
2023/08/01 02:26:58;;;;;;;4.37;4.27;;;16.80;99.90;;;;;;5030823;28;20783;-68
2023/08/01 02:29:25;;;;;;;4.87;4.77;;;16.80;99.90;;;;;;5019118;28;20462;-69
2023/08/01 02:31:54;;;;;;;4.63;4.53;;;16.80;99.90;;;;;;5028057;28;20461;-66
2023/08/01 02:34:21;;;;;;;4.93;4.83;;;16.80;99.90;;;;;;5026788;28;20469;-68
2023/08/01 02:36:48;;;;;;;5.43;5.23;;;16.70;99.90;;;;;;5027024;28;21426;-69
2023/08/01 02:39:16;;;;;;;4.70;4.60;;;16.70;99.90;;;;;;5024754;28;20503;-68
2023/08/01 02:41:42;;;;;;;4.93;4.83;;;16.70;99.90;;;;;;5022029;28;20492;-69
2023/08/01 02:44:09;;;;;;;5.17;4.97;;;16.70;99.90;;;;;;5023000;28;20467;-68
2023/08/01 02:46:36;;;;;;;5.07;4.87;;;16.60;99.90;;;;;;5030448;28;20461;-69
2023/08/01 02:49:04;;;;;;;6.23;6.03;;;16.50;99.90;;;;;;5024422;28;20467;-68
2023/08/01 02:51:31;;;;;;;6.03;5.73;;;16.40;99.90;;;;;;5027650;28;20515;-70
2023/08/01 02:53:57;;;;;;;7.93;7.33;;;16.40;99.90;;;;;;5029781;28;20510;-67
2023/08/01 02:56:25;;;;;;;5.73;5.47;;;16.40;99.90;;;;;;5023048;28;20519;-68
2023/08/01 02:58:52;;;;;;;6.30;5.93;;;16.30;99.90;;;;;;5023180;28;20965;-68
2023/08/01 03:01:18;;;;;;;6.77;6.30;;;16.30;99.90;;;;;;5029984;28;20559;-68
2023/08/01 03:03:47;;;;;;;5.80;5.50;;;16.10;99.90;;;;;;5027986;28;20469;-68
2023/08/01 03:06:16;;;;;;;7.57;7.07;;;16.00;99.90;;;;;;5017086;28;20473;-68
2023/08/01 03:08:43;;;;;;;8.53;7.00;;;15.90;99.90;;;;;;5029144;28;20515;-67
2023/08/01 03:11:10;;;;;;;6.93;6.53;;;15.90;99.90;;;;;;5024758;28;20464;-69
2023/08/01 03:13:37;;;;;;;8.70;7.93;;;15.80;99.90;;;;;;5023637;28;20476;-68
2023/08/01 03:16:05;;;;;;;5.63;5.43;;;15.80;99.90;;;;;;5029931;28;20488;-69
2023/08/01 03:18:32;;;;;;;7.77;7.23;;;15.80;99.90;;;;;;5030035;28;20536;-68
2023/08/01 03:20:59;;;;;;;7.63;6.93;;;15.70;99.90;;;;;;5026197;28;20460;-68
2023/08/01 03:23:27;;;;;;;7.20;6.80;;;15.70;99.90;;;;;;5029812;28;20456;-67
2023/08/01 03:25:54;;;;;;;5.37;5.13;;;15.60;99.90;;;;;;5019258;28;20498;-69
2023/08/01 03:28:20;;;;;;;7.23;6.70;;;15.50;99.90;;;;;;5024482;28;20460;-68
2023/08/01 03:30:49;;;;;;;9.23;5.60;;;15.50;99.90;;;;;;5026704;28;20475;-69
2023/08/01 03:33:16;;;;;;;9.23;7.50;;;15.50;99.90;;;;;;5021924;28;20488;-68
2023/08/01 03:35:43;;;;;;;6.17;5.77;;;15.50;99.90;;;;;;5029853;28;20472;-68
2023/08/01 03:38:11;;;;;;;8.70;8.10;;;15.40;99.90;;;;;;5023869;28;20467;-66
2023/08/01 03:40:41;;;;;;;7.53;6.50;;;15.40;99.90;;;;;;5024073;28;20841;-67
2023/08/01 03:43:09;;;;;;;5.37;4.83;;;15.40;99.90;;;;;;5015391;28;20508;-68
2023/08/01 03:45:36;;;;;;;6.43;6.03;;;15.40;99.90;;;;;;5023601;28;20903;-70
2023/08/01 03:48:04;;;;;;;10.17;6.27;;;15.30;99.90;;;;;;5029404;28;20460;-68
2023/08/01 03:50:32;;;;;;;4.87;4.77;;;15.30;99.90;;;;;;5024457;28;20457;-68
2023/08/01 03:52:58;;;;;;;22.43;6.07;;;15.30;99.90;;;;;;5026773;28;20763;-68
2023/08/01 03:55:26;;;;;;;4.80;4.50;;;15.30;99.90;;;;;;5025829;28;20453;-67
2023/08/01 03:57:54;;;;;;;4.93;4.73;;;15.30;99.90;;;;;;5018215;28;20516;-69
2023/08/01 04:00:22;;;;;;;5.77;5.47;;;15.40;99.90;;;;;;5029016;28;20492;-67
2023/08/01 04:02:51;;;;;;;4.87;4.67;;;15.40;99.90;;;;;;5022270;28;20464;-68
2023/08/01 04:05:18;;;;;;;5.63;5.30;;;15.50;99.90;;;;;;5028716;28;20642;-70
2023/08/01 04:07:45;;;;;;;4.20;4.10;;;15.50;99.90;;;;;;5028741;28;20453;-68
2023/08/01 04:10:12;;;;;;;5.67;5.47;;;15.60;99.90;;;;;;5027234;28;20461;-68
2023/08/01 04:12:39;;;;;;;4.63;4.53;;;15.60;99.90;;;;;;5026481;28;20473;-67
2023/08/01 04:15:10;;;;;;;8.90;8.10;;;15.60;99.90;;;;;;5021976;28;20497;-69
2023/08/01 04:17:37;;;;;;;4.83;4.60;;;15.60;99.90;;;;;;5019646;28;20468;-68
2023/08/01 04:20:05;;;;;;;9.77;6.23;;;15.60;99.90;;;;;;5025014;28;20584;-67
2023/08/01 04:22:32;;;;;;;7.03;5.40;;;15.50;99.90;;;;;;5028983;28;20994;-70
2023/08/01 04:24:59;;;;;;;5.77;5.53;;;15.50;99.90;;;;;;5025613;28;20456;-68
2023/08/01 04:27:26;;;;;;;4.43;4.33;;;15.50;99.90;;;;;;5026054;28;20457;-68
2023/08/01 04:29:54;;;;;;;5.50;5.20;;;15.60;99.90;;;;;;5028353;28;20444;-68
2023/08/01 04:32:22;;;;;;;6.97;6.40;;;15.60;99.90;;;;;;5028341;28;20534;-69
2023/08/01 04:34:50;;;;;;;5.80;5.30;;;15.60;99.90;;;;;;5017415;28;20468;-68
2023/08/01 04:37:20;;;;;;;3.33;3.13;;;15.50;99.90;;;;;;5024447;28;20461;-67
2023/08/01 04:39:48;;;;;;;9.30;3.10;;;15.60;99.90;;;;;;5025387;28;20489;-68
2023/08/01 04:42:16;;;;;;;3.60;3.40;;;15.60;99.90;;;;;;5024868;28;20468;-68
2023/08/01 04:44:43;;;;;;;4.90;4.47;;;15.50;99.90;;;;;;5028476;28;20452;-68
2023/08/01 04:47:10;;;;;;;2.80;2.70;;;15.50;99.90;;;;;;5024062;28;20465;-67
2023/08/01 04:49:38;;;;;;;3.67;3.40;;;15.40;99.90;;;;;;5026351;28;20456;-67
2023/08/01 04:52:07;;;;;;;9.93;3.77;;;15.40;99.90;;;;;;5021161;28;20485;-68
2023/08/01 04:54:35;;;;;;;3.17;3.03;;;15.40;99.90;;;;;;5021469;28;20990;-68
2023/08/01 04:57:03;;;;;;;3.40;3.17;;;15.30;99.90;;;;;;5028558;28;20519;-68
2023/08/01 04:59:30;;;;;;;3.30;3.00;;;15.30;99.90;;;;;;5027902;28;20504;-68
2023/08/01 05:01:57;;;;;;;2.47;2.37;;;15.30;99.90;;;;;;5022731;28;20461;-67
2023/08/01 05:04:24;;;;;;;3.57;2.77;;;15.20;99.90;;;;;;5019211;28;20888;-68
2023/08/01 05:06:53;;;;;;;3.27;3.03;;;15.30;99.90;;;;;;5009481;28;20462;-69
2023/08/01 05:09:20;;;;;;;4.93;4.40;;;15.30;99.90;;;;;;5023826;28;20468;-68
2023/08/01 05:11:49;;;;;;;4.67;4.33;;;15.40;99.90;;;;;;5021972;28;20498;-67
2023/08/01 05:14:18;;;;;;;9.23;5.90;;;15.50;99.90;;;;;;5024634;28;20467;-68
2023/08/01 05:16:44;;;;;;;3.90;3.57;;;15.50;99.90;;;;;;5026872;28;20915;-68
2023/08/01 05:19:11;;;;;;;2.00;1.90;;;15.50;99.90;;;;;;5016941;28;20955;-68
2023/08/01 05:21:38;;;;;;;4.63;3.07;;;15.60;99.90;;;;;;5024777;28;20530;-69
2023/08/01 05:24:08;;;;;;;6.20;5.73;;;15.70;99.90;;;;;;5023052;28;20460;-69
2023/08/01 05:26:35;;;;;;;3.37;3.17;;;15.80;99.90;;;;;;5015192;28;20473;-70
2023/08/01 05:29:01;;;;;;;5.73;4.10;;;15.70;99.90;;;;;;5026965;28;20488;-67
2023/08/01 05:31:28;;;;;;;3.80;3.50;;;15.80;99.90;;;;;;5024742;28;20465;-69
2023/08/01 05:33:55;;;;;;;8.30;5.40;;;15.80;99.90;;;;;;5027263;28;20845;-68
2023/08/01 05:36:23;;;;;;;5.33;4.47;;;15.90;99.90;;;;;;5017191;28;20959;-68
2023/08/01 05:38:49;;;;;;;3.70;3.50;;;16.00;99.90;;;;;;5022936;28;20482;-69
2023/08/01 05:41:19;;;;;;;4.87;2.93;;;16.00;99.90;;;;;;5018916;28;20499;-68
2023/08/01 05:43:47;;;;;;;11.03;4.80;;;16.10;99.90;;;;;;5020653;28;20866;-68
2023/08/01 05:46:15;;;;;;;2.97;2.87;;;16.10;99.90;;;;;;5021512;28;20463;-67
2023/08/01 05:48:42;;;;;;;6.30;5.80;;;16.20;99.90;;;;;;5021462;28;20886;-68
2023/08/01 05:51:09;;;;;;;4.23;3.83;;;16.10;99.90;;;;;;5015518;28;20836;-68
2023/08/01 05:53:37;;;;;;;5.57;4.90;;;16.10;99.90;;;;;;5025407;28;20468;-68
2023/08/01 05:56:04;;;;;;;3.70;3.50;;;16.20;99.90;;;;;;5019446;28;20465;-69
2023/08/01 05:58:33;;;;;;;6.87;5.37;;;16.30;99.90;;;;;;5022212;28;20462;-69
2023/08/01 06:01:00;;;;;;;6.77;6.20;;;16.50;99.90;;;;;;5020143;28;20671;-69
2023/08/01 06:03:27;;;;;;;5.53;5.03;;;16.60;99.90;;;;;;5019949;28;20507;-68
2023/08/01 06:05:54;;;;;;;4.70;4.50;;;16.50;99.90;;;;;;5027648;28;20968;-68
2023/08/01 06:08:22;;;;;;;7.03;5.00;;;16.60;99.90;;;;;;5026213;28;20471;-67
2023/08/01 06:10:49;;;;;;;5.30;4.90;;;16.60;99.90;;;;;;5019201;28;20461;-69
2023/08/01 06:13:17;;;;;;;5.33;4.93;;;16.70;99.90;;;;;;5022632;28;20460;-67
2023/08/01 06:15:45;;;;;;;5.80;5.40;;;16.70;99.90;;;;;;5017659;28;20504;-68
2023/08/01 06:18:12;;;;;;;3.77;3.67;;;16.80;99.90;;;;;;5017907;28;20469;-67
2023/08/01 06:20:39;;;;;;;4.60;4.50;;;16.80;99.90;;;;;;5024812;28;20500;-68
2023/08/01 06:23:07;;;;;;;5.73;5.37;;;16.90;99.90;;;;;;5020655;28;20461;-68
2023/08/01 06:25:34;;;;;;;5.70;5.40;;;16.90;99.90;;;;;;5017697;28;20462;-68
2023/08/01 06:28:01;;;;;;;5.17;5.00;;;16.90;99.90;;;;;;5020100;28;20831;-69
2023/08/01 06:30:28;;;;;;;4.43;4.30;;;16.90;99.90;;;;;;5028046;28;20535;-69
2023/08/01 06:32:58;;;;;;;6.37;6.03;;;16.90;99.90;;;;;;5022182;28;20555;-69
2023/08/01 06:35:27;;;;;;;4.70;4.60;;;16.90;99.90;;;;;;5017070;28;20465;-69
2023/08/01 06:37:54;;;;;;;6.40;6.03;;;17.00;99.90;;;;;;5022900;28;20456;-69
2023/08/01 06:40:20;;;;;;;6.17;5.77;;;17.20;99.90;;;;;;5022145;28;20485;-69
2023/08/01 06:42:48;;;;;;;7.83;7.00;;;17.20;99.90;;;;;;5026180;28;20468;-68
2023/08/01 06:45:15;;;;;;;8.10;7.50;;;17.20;99.90;;;;;;5023485;28;20492;-69
2023/08/01 06:47:43;;;;;;;5.63;5.43;;;17.30;99.90;;;;;;5024829;28;20472;-69
2023/08/01 06:50:11;;;;;;;6.33;6.03;;;17.30;99.90;;;;;;5016126;28;20842;-68
2023/08/01 06:52:38;;;;;;;10.03;8.93;;;17.50;99.90;;;;;;5028638;28;20457;-69
2023/08/01 06:55:07;;;;;;;9.37;8.63;;;17.50;99.90;;;;;;5022820;28;20465;-67
2023/08/01 06:57:34;;;;;;;9.47;8.63;;;17.60;99.90;;;;;;5029670;28;20461;-69
2023/08/01 07:00:01;;;;;;;9.03;8.43;;;17.70;99.90;;;;;;5025273;28;20495;-68
2023/08/01 07:02:29;;;;;;;7.93;7.53;;;17.80;99.90;;;;;;5026655;28;20465;-68
2023/08/01 07:04:57;;;;;;;6.83;6.63;;;17.90;99.90;;;;;;5020933;28;20597;-69
2023/08/01 07:07:25;;;;;;;23.27;8.93;;;17.80;99.90;;;;;;5016242;28;20842;-67
2023/08/01 07:09:52;;;;;;;8.20;7.70;;;17.80;99.90;;;;;;5026165;28;20821;-69
2023/08/01 07:12:20;;;;;;;7.77;7.57;;;17.70;99.90;;;;;;5017481;28;20476;-68
2023/08/01 07:14:46;;;;;;;8.97;8.57;;;17.80;99.90;;;;;;5026349;28;20480;-68
2023/08/01 07:17:13;;;;;;;8.60;8.30;;;18.00;99.90;;;;;;5010367;28;20461;-67
2023/08/01 07:19:40;;;;;;;9.07;8.70;;;18.00;99.90;;;;;;4999577;28;20466;-68
2023/08/01 07:22:07;;;;;;;9.23;8.90;;;18.00;99.90;;;;;;5019102;28;20457;-68
2023/08/01 07:24:36;;;;;;;10.90;10.10;;;18.00;99.90;;;;;;5017409;28;20465;-68
2023/08/01 07:27:04;;;;;;;10.47;9.97;;;18.10;99.90;;;;;;5006644;28;20477;-67
2023/08/01 07:29:30;;;;;;;11.13;10.33;;;18.10;99.90;;;;;;5000681;28;20482;-68
2023/08/01 07:31:58;;;;;;;9.80;9.20;;;18.30;99.90;;;;;;5013519;28;20509;-70
2023/08/01 07:34:25;;;;;;;11.53;10.80;;;18.40;99.90;;;;;;5012156;28;20492;-67
2023/08/01 07:36:51;;;;;;;12.23;11.30;;;18.40;99.90;;;;;;5004099;28;20454;-69
2023/08/01 07:39:18;;;;;;;10.60;10.10;;;18.30;99.90;;;;;;5015113;28;20477;-69
2023/08/01 07:41:47;;;;;;;10.70;10.20;;;18.20;99.90;;;;;;5015046;28;20497;-69
2023/08/01 07:44:15;;;;;;;12.63;11.87;;;18.20;99.90;;;;;;5002798;28;20466;-68
2023/08/01 07:46:42;;;;;;;10.47;9.97;;;18.40;99.90;;;;;;4999829;28;20964;-68
2023/08/01 07:49:09;;;;;;;11.03;10.43;;;18.60;99.90;;;;;;5005694;28;20460;-68
2023/08/01 07:51:36;;;;;;;12.27;11.57;;;18.80;99.90;;;;;;5004742;28;20488;-68
2023/08/01 07:54:02;;;;;;;13.43;12.60;;;18.90;99.90;;;;;;5004611;28;21707;-66
2023/08/01 07:56:30;;;;;;;14.33;13.17;;;19.00;99.90;;;;;;5006099;28;20556;-67
2023/08/01 07:58:58;;;;;;;10.50;10.10;;;18.90;99.90;;;;;;4999815;28;20477;-68
2023/08/01 08:01:24;;;;;;;13.27;12.33;;;18.80;99.90;;;;;;5004560;28;21031;-68
2023/08/01 08:03:51;;;;;;;12.90;11.90;;;18.70;99.90;;;;;;5013060;28;20471;-69
2023/08/01 08:06:20;;;;;;;13.10;12.30;;;18.80;99.90;;;;;;5006701;28;20465;-69
2023/08/01 08:08:47;;;;;;;12.20;11.60;;;18.60;99.90;;;;;;4998125;28;20563;-69
2023/08/01 08:11:15;;;;;;;11.00;10.50;;;18.50;99.90;;;;;;4999152;28;20493;-68
2023/08/01 08:13:43;;;;;;;10.53;10.13;;;18.60;99.90;;;;;;5005553;28;20449;-68
2023/08/01 08:16:12;;;;;;;13.80;12.93;;;18.90;99.90;;;;;;5015896;28;20577;-69
2023/08/01 08:18:39;;;;;;;12.80;12.10;;;19.10;99.90;;;;;;5015639;28;20472;-69
2023/08/01 08:21:06;;;;;;;12.87;12.27;;;19.50;99.90;;;;;;5023097;28;20508;-69
2023/08/01 08:23:32;;;;;;;12.43;11.93;;;19.50;99.90;;;;;;5019215;28;20861;-67
2023/08/01 08:25:59;;;;;;;13.90;13.10;;;19.50;99.90;;;;;;5025196;28;20464;-69
2023/08/01 08:28:30;;;;;;;12.50;11.80;;;19.30;99.90;;;;;;5024749;28;20461;-68
2023/08/01 08:30:57;;;;;;;13.10;12.40;;;19.20;99.90;;;;;;5014858;28;20990;-68
2023/08/01 08:33:27;;;;;;;14.80;13.63;;;19.60;99.90;;;;;;5020623;28;20464;-69
2023/08/01 08:35:53;;;;;;;15.00;13.90;;;19.60;99.90;;;;;;5024306;28;21000;-67
2023/08/01 08:38:20;;;;;;;14.00;13.20;;;19.50;99.90;;;;;;5018683;28;20460;-68
2023/08/01 08:40:57;;;;;;;13.30;12.70;;;19.60;99.90;;;;;;5019995;28;20488;-67
2023/08/01 08:43:24;;;;;;;14.63;13.60;;;19.60;99.90;;;;;;5022556;28;20565;-68
2023/08/01 08:45:53;;;;;;;14.70;13.90;;;19.60;99.90;;;;;;5021234;28;20457;-67
2023/08/01 08:48:21;;;;;;;12.90;12.33;;;19.40;99.90;;;;;;5018875;28;20576;-68
2023/08/01 08:50:51;;;;;;;13.37;12.77;;;19.40;99.90;;;;;;5023520;28;20947;-67
2023/08/01 08:53:19;;;;;;;13.57;12.80;;;19.60;99.90;;;;;;5021408;28;20461;-67
2023/08/01 08:55:48;;;;;;;14.10;13.40;;;20.00;99.90;;;;;;5010238;28;20494;-67
2023/08/01 08:58:15;;;;;;;13.43;12.73;;;19.90;99.90;;;;;;5018093;28;20471;-68
2023/08/01 09:00:44;;;;;;;14.20;13.60;;;20.30;99.90;;;;;;5020243;28;20558;-67
2023/08/01 09:03:11;;;;;;;14.77;13.80;;;20.50;99.90;;;;;;5023689;28;21031;-67
2023/08/01 09:05:47;;;;;;;14.17;13.47;;;20.90;99.90;;;;;;5021088;28;20465;-68
2023/08/01 09:08:19;;;;;;;13.00;12.50;;;21.30;99.90;;;;;;5022858;28;20674;-67
2023/08/01 09:10:46;;;;;;;14.97;14.27;;;21.30;99.90;;;;;;5017408;28;21030;-67
2023/08/01 09:13:13;;;;;;;16.80;15.37;;;21.40;99.90;;;;;;5025164;28;20913;-68
2023/08/01 09:15:43;;;;;;;14.87;13.97;;;21.40;99.90;;;;;;5016810;28;20500;-69
2023/08/01 09:18:10;;;;;;;15.60;14.43;;;21.20;99.90;;;;;;5022209;28;20510;-70
2023/08/01 09:20:48;;;;;;;14.83;14.13;;;21.00;99.90;;;;;;5023115;28;20495;-69
2023/08/01 09:23:17;;;;;;;15.40;14.60;;;20.50;99.90;;;;;;5024956;28;20475;-70
2023/08/01 09:25:45;;;;;;;14.33;13.63;;;20.40;99.90;;;;;;5011185;28;20465;-70
2023/08/01 09:28:21;;;;;;;15.27;13.70;;;20.80;99.90;;;;;;5023788;28;20459;-70
2023/08/01 09:30:49;;;;;;;14.10;13.50;;;21.00;99.90;;;;;;5021992;28;20518;-69
2023/08/01 09:33:18;;;;;;;14.57;13.93;;;21.00;99.90;;;;;;5023246;28;20460;-70
2023/08/01 09:35:45;;;;;;;15.47;14.57;;;20.80;99.90;;;;;;5023343;28;20457;-69
2023/08/01 09:38:15;;;;;;;15.83;15.00;;;21.10;99.90;;;;;;5023534;28;20838;-69
2023/08/01 09:40:44;;;;;;;14.60;13.80;;;21.20;99.90;;;;;;5021085;28;20485;-69
2023/08/01 09:43:12;;;;;;;14.17;13.57;;;21.50;99.90;;;;;;5023603;28;20832;-69
2023/08/01 09:45:49;;;;;;;15.80;14.93;;;21.90;99.90;;;;;;5028249;28;20464;-69
2023/08/01 09:48:24;;;;;;;15.27;14.37;;;21.80;99.90;;;;;;5027936;28;20476;-69
2023/08/01 09:50:51;;;;;;;15.47;14.77;;;22.30;99.90;;;;;;5026842;28;20849;-70
2023/08/01 09:53:19;;;;;;;15.90;14.80;;;22.50;99.90;;;;;;5025527;28;20487;-70
2023/08/01 09:55:48;;;;;;;16.83;15.90;;;22.40;99.90;;;;;;5022503;28;20538;-70
2023/08/01 09:58:23;;;;;;;15.90;15.10;;;22.20;99.90;;;;;;5020070;28;20608;-69
2023/08/01 10:00:50;;;;;;;14.93;14.23;;;21.80;99.90;;;;;;5024113;28;20479;-69
2023/08/01 10:03:18;;;;;;;17.40;16.23;;;21.80;99.90;;;;;;5028867;28;20487;-68
2023/08/01 10:05:46;;;;;;;15.27;14.27;;;22.10;99.90;;;;;;5023297;28;21007;-70
2023/08/01 10:08:13;;;;;;;18.13;16.50;;;22.30;99.90;;;;;;5026003;28;20563;-70
2023/08/01 10:10:41;;;;;;;16.10;14.87;;;22.20;99.90;;;;;;5029235;28;20460;-70
2023/08/01 10:13:13;;;;;;;15.17;14.33;;;21.80;99.90;;;;;;5029237;28;20461;-70
2023/08/01 10:15:40;;;;;;;14.20;13.60;;;21.80;99.90;;;;;;5021779;28;20492;-70
2023/08/01 10:18:07;;;;;;;15.97;14.97;;;22.20;99.90;;;;;;5029074;28;20924;-70
2023/08/01 10:20:36;;;;;;;16.50;15.07;;;22.50;99.90;;;;;;5027234;28;20487;-70
2023/08/01 10:23:03;;;;;;;15.90;15.20;;;22.50;99.90;;;;;;5023884;28;20489;-70
2023/08/01 10:25:31;;;;;;;14.70;14.00;;;22.30;99.90;;;;;;5028316;28;20507;-70
2023/08/01 10:28:00;;;;;;;14.67;13.97;;;22.20;99.90;;;;;;5018574;28;20577;-70
2023/08/01 10:30:30;;;;;;;15.73;15.03;;;22.60;99.90;;;;;;5017869;28;20988;-68
2023/08/01 10:32:59;;;;;;;16.70;15.63;;;22.60;99.90;;;;;;5025374;28;20468;-68
2023/08/01 10:35:36;;;;;;;15.77;15.00;;;22.50;99.90;;;;;;5023084;28;20460;-68
2023/08/01 10:38:07;;;;;;;15.03;14.33;;;22.20;99.90;;;;;;5026330;28;20478;-69
2023/08/01 10:40:39;;;;;;;15.53;14.63;;;22.00;99.90;;;;;;5017981;28;20856;-70
2023/08/01 10:43:06;;;;;;;14.50;13.90;;;21.90;99.90;;;;;;5018997;28;20465;-69
2023/08/01 10:45:35;;;;;;;14.20;13.60;;;22.60;99.90;;;;;;5020949;28;20522;-70
2023/08/01 10:48:10;;;;;;;16.33;15.33;;;23.30;99.90;;;;;;5015600;28;20829;-68
2023/08/01 10:50:37;;;;;;;15.73;14.93;;;23.70;99.90;;;;;;5017016;28;21151;-69
2023/08/01 10:53:06;;;;;;;15.17;14.47;;;23.60;99.90;;;;;;5024850;28;20465;-69
2023/08/01 10:55:43;;;;;;;15.57;14.80;;;23.40;99.90;;;;;;5013805;28;20473;-69
2023/08/01 10:58:10;;;;;;;15.00;14.30;;;23.90;99.90;;;;;;5021534;28;20777;-69
2023/08/01 11:00:39;;;;;;;15.73;14.67;;;24.00;99.90;;;;;;5025273;28;20711;-68
2023/08/01 11:03:05;;;;;;;16.40;15.50;;;24.70;99.90;;;;;;5022498;28;20493;-69
2023/08/01 11:05:33;;;;;;;15.50;14.70;;;25.50;99.90;;;;;;5022000;28;20480;-69
2023/08/01 11:08:01;;;;;;;17.70;16.63;;;26.00;99.90;;;;;;5020133;28;20468;-69
2023/08/01 11:10:29;;;;;;;16.70;15.80;;;25.90;99.90;;;;;;5022659;28;20515;-69
2023/08/01 11:12:56;;;;;;;17.13;16.33;;;25.20;99.90;;;;;;5014631;28;20820;-70
2023/08/01 11:15:24;;;;;;;17.60;16.70;;;25.30;99.90;;;;;;5026206;28;20829;-68
2023/08/01 11:17:53;;;;;;;16.73;15.90;;;24.90;99.90;;;;;;5022936;28;20461;-70
2023/08/01 11:20:22;;;;;;;16.70;15.90;;;25.10;99.90;;;;;;5026573;28;20928;-69
2023/08/01 11:22:54;;;;;;;16.50;15.70;;;24.70;99.90;;;;;;5021188;28;21057;-69
2023/08/01 11:25:31;;;;;;;15.90;15.20;;;24.70;99.90;;;;;;5023179;28;20841;-68
2023/08/01 11:27:59;;;;;;;16.20;15.50;;;24.70;99.90;;;;;;5023704;28;20468;-70
2023/08/01 11:30:32;;;;;;;15.67;14.90;;;24.10;99.90;;;;;;5024839;28;20464;-69
2023/08/01 11:33:02;;;;;;;15.60;14.83;;;22.80;99.90;;;;;;5025018;28;20955;-68
2023/08/01 11:35:29;;;;;;;14.70;14.00;;;22.20;99.90;;;;;;5021658;28;20465;-68
2023/08/01 11:37:58;;;;;;;14.57;13.97;;;21.60;99.90;;;;;;5020469;28;20457;-69
2023/08/01 11:40:27;;;;;;;15.50;14.70;;;22.10;99.90;;;;;;5027996;28;20506;-68
2023/08/01 11:42:58;;;;;;;14.20;13.60;;;22.10;99.90;;;;;;5023523;28;20509;-70
2023/08/01 11:45:26;;;;;;;14.53;13.93;;;21.20;99.90;;;;;;5023418;28;20511;-69
2023/08/01 11:47:52;;;;;;;14.70;13.90;;;20.80;99.90;;;;;;5019383;28;20465;-70
2023/08/01 11:50:24;;;;;;;14.53;13.57;;;20.90;99.90;;;;;;5024003;28;20464;-70
2023/08/01 11:52:52;;;;;;;14.43;13.67;;;20.70;99.90;;;;;;5020052;28;20452;-70
2023/08/01 11:55:23;;;;;;;14.63;13.90;;;20.20;99.90;;;;;;5018779;28;20468;-69
2023/08/01 11:57:57;;;;;;;14.47;13.70;;;19.60;99.90;;;;;;5024133;28;20469;-69
2023/08/01 12:00:26;;;;;;;13.23;12.63;;;19.20;99.90;;;;;;5026478;28;20518;-69
2023/08/01 12:03:03;;;;;;;11.83;11.33;;;19.30;99.90;;;;;;5022768;28;20495;-70
2023/08/01 12:05:32;;;;;;;13.27;12.63;;;20.20;99.90;;;;;;5025957;28;20507;-69
2023/08/01 12:08:09;;;;;;;13.27;12.63;;;21.30;99.90;;;;;;5020274;28;20472;-70
2023/08/01 12:10:39;;;;;;;13.50;12.90;;;21.90;99.90;;;;;;5021961;28;20795;-70
2023/08/01 12:13:06;;;;;;;14.00;13.20;;;22.30;99.90;;;;;;5024551;28;20449;-68
2023/08/01 12:15:33;;;;;;;14.40;13.70;;;22.70;99.90;;;;;;5015505;28;20496;-69
2023/08/01 12:17:59;;;;;;;15.63;14.53;;;23.00;99.90;;;;;;5012651;28;20457;-69
2023/08/01 12:20:27;;;;;;;14.20;13.60;;;22.50;99.90;;;;;;5013808;28;20441;-70
2023/08/01 12:22:55;;;;;;;14.63;13.73;;;22.30;99.90;;;;;;5011826;28;20501;-70
2023/08/01 12:25:22;;;;;;;13.60;13.10;;;22.00;99.90;;;;;;5004870;28;20987;-69
2023/08/01 12:27:50;;;;;;;15.97;14.97;;;21.50;99.90;;;;;;5002908;28;20483;-67
2023/08/01 12:30:16;;;;;;;18.40;17.50;;;20.80;99.90;;;;;;5006051;28;20457;-69
2023/08/01 12:32:44;;;;;;;18.00;17.10;;;20.40;99.90;;;;;;5015958;28;20460;-67
2023/08/01 12:35:11;;;;;;;17.70;16.70;;;19.80;99.90;;;;;;5013546;28;20515;-68
2023/08/01 12:37:39;;;;;;;15.93;15.13;;;19.50;99.90;;;;;;5012506;28;20454;-69
2023/08/01 12:40:08;;;;;;;17.83;16.77;;;19.50;99.90;;;;;;5001461;28;20465;-67
2023/08/01 12:42:36;;;;;;;16.60;15.60;;;19.60;99.90;;;;;;5007863;28;20478;-69